createdAt,value
2022-10-05T00:01:28.895Z,27.83
2022-10-05T00:04:08.493Z,27.86
2022-10-05T00:06:37.728Z,27.70
2022-10-05T00:09:19.380Z,27.84
2022-10-05T00:11:49.818Z,27.75
2022-10-05T00:14:29.949Z,27.77
2022-10-05T00:16:59.592Z,27.69
2022-10-05T00:19:40.947Z,27.72
2022-10-05T00:22:30.176Z,27.70
2022-10-05T00:25:04.718Z,27.76
2022-10-05T00:27:37.713Z,27.64
2022-10-05T00:30:16.323Z,27.68
2022-10-05T00:32:46.592Z,27.65
2022-10-05T00:35:18.090Z,27.63
2022-10-05T00:37:52.245Z,27.70
2022-10-05T00:40:58.769Z,27.79
2022-10-05T00:44:21.617Z,27.78
2022-10-05T00:46:59.612Z,27.71
2022-10-05T00:49:55.906Z,27.73
2022-10-05T00:52:34.233Z,27.63
2022-10-05T00:55:47.682Z,27.51
2022-10-05T00:58:22.849Z,27.53
2022-10-05T01:01:29.516Z,27.48
2022-10-05T01:04:28.992Z,27.52
2022-10-05T01:07:35.178Z,27.42
2022-10-05T01:10:40.221Z,27.44
2022-10-05T01:13:34.245Z,27.49
2022-10-05T01:16:10.897Z,27.31
2022-10-05T01:19:03.162Z,27.27
2022-10-05T01:21:44.951Z,27.26
2022-10-05T01:24:34.875Z,27.29
2022-10-05T01:27:04.285Z,27.23
2022-10-05T01:29:42.731Z,27.32
2022-10-05T01:32:43.772Z,27.38
2022-10-05T01:35:27.865Z,27.40
2022-10-05T01:38:00.839Z,27.44
2022-10-05T01:40:46.177Z,27.42
2022-10-05T01:43:31.299Z,27.44
2022-10-05T01:46:13.203Z,27.50
2022-10-05T01:49:14.297Z,27.65
2022-10-05T01:52:01.702Z,27.65
2022-10-05T01:54:56.867Z,27.74
2022-10-05T01:57:45.492Z,27.84
2022-10-05T02:00:22.277Z,27.91
2022-10-05T02:03:03.132Z,27.99
2022-10-05T02:05:42.686Z,28.04
2022-10-05T02:08:34.003Z,28.12
2022-10-05T02:11:10.230Z,28.11
2022-10-05T02:13:54.577Z,28.17
2022-10-05T02:16:45.597Z,28.20
2022-10-05T02:19:36.889Z,28.28
2022-10-05T02:22:13.331Z,28.33
2022-10-05T02:24:52.510Z,28.48
2022-10-05T02:27:28.855Z,28.55
2022-10-05T02:30:04.102Z,28.65
2022-10-05T02:32:50.977Z,28.76
2022-10-05T02:35:23.045Z,28.81
2022-10-05T02:38:23.156Z,29.01
2022-10-05T02:41:05.454Z,29.07
2022-10-05T02:44:05.272Z,29.20
2022-10-05T02:46:59.044Z,29.27
2022-10-05T02:49:55.580Z,29.32
2022-10-05T02:52:46.134Z,29.50
2022-10-05T02:55:32.201Z,29.56
2022-10-05T02:58:24.049Z,29.67
2022-10-05T03:01:08.558Z,29.71
2022-10-05T03:03:57.405Z,29.77
2022-10-05T03:06:36.947Z,29.86
2022-10-05T03:09:09.509Z,29.89
2022-10-05T03:12:07.243Z,30.01
2022-10-05T03:14:48.849Z,30.08
2022-10-05T03:17:23.740Z,30.16
2022-10-05T03:20:24.096Z,30.28
2022-10-05T03:23:02.814Z,30.40
2022-10-05T03:25:57.563Z,30.45
2022-10-05T03:28:46.421Z,30.55
2022-10-05T03:31:55.384Z,30.67
2022-10-05T03:34:38.528Z,30.70
2022-10-05T03:37:26.039Z,30.84
2022-10-05T03:40:04.835Z,30.84
2022-10-05T03:42:43.191Z,30.95
2022-10-05T03:45:30.859Z,30.88
2022-10-05T03:48:03.206Z,31.04
2022-10-05T03:50:46.127Z,31.14
2022-10-05T03:53:29.021Z,31.24
2022-10-05T03:56:06.157Z,31.29
2022-10-05T03:58:45.529Z,31.41
2022-10-05T04:01:21.053Z,31.43
2022-10-05T04:04:00.906Z,31.56
2022-10-05T04:06:42.075Z,31.63
2022-10-05T04:09:20.710Z,31.69
2022-10-05T04:11:52.408Z,31.74
2022-10-05T04:14:47.350Z,31.93
2022-10-05T04:17:23.477Z,31.93
2022-10-05T04:20:07.289Z,32.10
2022-10-05T04:22:42.175Z,32.06
2022-10-05T04:25:18.565Z,32.25
2022-10-05T04:28:04.913Z,32.28
2022-10-05T04:30:39.612Z,32.14
2022-10-05T04:33:14.864Z,32.27
2022-10-05T04:36:23.527Z,32.47
2022-10-05T04:39:25.507Z,32.51
2022-10-05T04:42:08.437Z,32.56
2022-10-05T04:45:26.055Z,32.70
2022-10-05T04:48:23.760Z,32.80
2022-10-05T04:50:57.346Z,32.80
2022-10-05T04:53:37.331Z,33.00
2022-10-05T04:56:20.807Z,32.82
2022-10-05T04:59:30.755Z,33.20
2022-10-05T05:02:18.390Z,33.31
2022-10-05T05:05:16.912Z,33.18
2022-10-05T05:08:03.450Z,33.34
2022-10-05T05:10:55.081Z,33.51
2022-10-05T05:13:45.316Z,33.45
2022-10-05T05:16:37.209Z,33.54
2022-10-05T05:19:24.243Z,33.63
2022-10-05T05:22:09.083Z,33.66
2022-10-05T05:24:58.406Z,33.70
2022-10-05T05:27:50.618Z,33.73
2022-10-05T05:30:52.407Z,33.65
2022-10-05T05:33:28.390Z,33.71
2022-10-05T05:36:36.168Z,33.94
2022-10-05T05:39:06.025Z,33.77
2022-10-05T05:42:00.101Z,34.21
2022-10-05T05:44:42.721Z,34.27
2022-10-05T05:47:22.130Z,34.29
2022-10-05T05:50:19.715Z,34.42
2022-10-05T05:53:25.186Z,34.38
2022-10-05T05:56:12.738Z,34.30
2022-10-05T05:58:48.642Z,34.34
2022-10-05T06:01:34.179Z,34.39
2022-10-05T06:04:18.465Z,34.57
2022-10-05T06:06:52.524Z,34.61
2022-10-05T06:09:34.273Z,34.63
2022-10-05T06:12:35.954Z,34.58
2022-10-05T06:15:13.198Z,34.73
2022-10-05T06:17:51.185Z,34.70
2022-10-05T06:20:30.744Z,34.87
2022-10-05T06:23:04.862Z,34.95
2022-10-05T06:25:51.126Z,34.97
2022-10-05T06:28:20.795Z,34.89
2022-10-05T06:31:22.539Z,35.15
2022-10-05T06:34:05.131Z,35.14
2022-10-05T06:36:54.398Z,35.19
2022-10-05T06:39:45.140Z,35.23
2022-10-05T06:42:39.087Z,35.30
2022-10-05T06:46:00.236Z,35.18
2022-10-05T06:48:59.728Z,35.19
2022-10-05T06:51:53.090Z,35.32
2022-10-05T06:55:09.534Z,35.50
2022-10-05T06:58:08.879Z,35.58
2022-10-05T07:00:58.724Z,35.60
2022-10-05T07:03:42.890Z,35.43
2022-10-05T07:06:21.870Z,35.56
2022-10-05T07:09:19.211Z,35.69
2022-10-05T07:12:00.876Z,35.49
2022-10-05T07:15:02.968Z,35.62
2022-10-05T07:17:46.682Z,35.56
2022-10-05T07:20:26.805Z,35.61
2022-10-05T07:23:08.388Z,35.43
2022-10-05T07:25:47.743Z,35.65
2022-10-05T07:28:26.651Z,35.68
2022-10-05T07:31:23.157Z,35.67
2022-10-05T07:34:23.448Z,35.68
2022-10-05T07:37:14.384Z,35.46
2022-10-05T07:40:06.784Z,35.66
2022-10-05T07:42:59.671Z,35.51
2022-10-05T07:45:33.205Z,35.73
2022-10-05T07:48:23.901Z,35.91
2022-10-05T07:51:19.559Z,35.86
2022-10-05T07:54:09.093Z,35.92
2022-10-05T07:56:45.278Z,35.95
2022-10-05T07:59:47.028Z,35.86
2022-10-05T08:02:45.576Z,35.92
2022-10-05T08:05:37.069Z,35.97
2022-10-05T08:08:34.035Z,36.02
2022-10-05T08:11:18.667Z,35.96
2022-10-05T08:13:51.062Z,35.74
2022-10-05T08:16:20.802Z,36.04
2022-10-05T08:19:07.934Z,35.90
2022-10-05T08:21:42.941Z,35.88
2022-10-05T08:24:45.885Z,35.96
2022-10-05T08:27:24.860Z,35.94
2022-10-05T08:30:12.021Z,36.04
2022-10-05T08:33:04.073Z,35.98
2022-10-05T08:35:45.017Z,35.79
2022-10-05T08:38:26.390Z,35.90
2022-10-05T08:41:37.763Z,35.91
2022-10-05T08:44:43.036Z,35.83
2022-10-05T08:47:22.920Z,35.97
2022-10-05T08:50:19.323Z,35.93
2022-10-05T08:53:32.056Z,35.89
2022-10-05T08:56:00.804Z,36.00
2022-10-05T08:59:17.762Z,35.97
2022-10-05T09:02:11.618Z,35.99
2022-10-05T09:04:49.912Z,35.89
2022-10-05T09:07:23.418Z,35.91
2022-10-05T09:10:20.332Z,35.93
2022-10-05T09:13:12.619Z,35.91
2022-10-05T09:16:06.100Z,35.88
2022-10-05T09:18:53.804Z,35.86
2022-10-05T09:21:43.677Z,35.87
2022-10-05T09:24:28.005Z,35.91
2022-10-05T09:27:17.883Z,35.87
2022-10-05T09:30:14.363Z,35.77
2022-10-05T09:33:10.615Z,35.73
2022-10-05T09:36:01.506Z,35.62
2022-10-05T09:39:06.945Z,35.70
2022-10-05T09:42:04.888Z,35.63
2022-10-05T09:44:43.296Z,35.69
2022-10-05T09:47:46.275Z,35.66
2022-10-05T09:50:42.035Z,35.65
2022-10-05T09:53:41.532Z,35.67
2022-10-05T09:56:20.184Z,35.60
2022-10-05T09:59:04.837Z,35.58
2022-10-05T10:01:55.628Z,35.57
2022-10-05T10:05:15.673Z,35.61
2022-10-05T10:08:05.826Z,35.56
2022-10-05T10:10:59.317Z,35.60
2022-10-05T10:14:01.294Z,35.46
2022-10-05T10:16:45.122Z,35.54
2022-10-05T10:19:49.168Z,35.53
2022-10-05T10:22:28.588Z,35.26
2022-10-05T10:25:25.518Z,35.48
2022-10-05T10:28:14.611Z,35.39
2022-10-05T10:31:02.161Z,35.29
2022-10-05T10:33:58.352Z,35.42
2022-10-05T10:37:07.394Z,35.31
2022-10-05T10:40:00.421Z,35.29
2022-10-05T10:42:44.481Z,35.26
2022-10-05T10:45:50.937Z,35.27
2022-10-05T10:48:32.644Z,35.24
2022-10-05T10:51:10.592Z,35.27
2022-10-05T10:54:23.843Z,35.23
2022-10-05T10:57:16.418Z,35.27
2022-10-05T11:00:07.737Z,35.12
2022-10-05T11:02:51.399Z,35.13
2022-10-05T11:05:39.518Z,35.04
2022-10-05T11:08:26.776Z,35.10
2022-10-05T11:11:24.186Z,35.04
2022-10-05T11:14:12.838Z,35.04
2022-10-05T11:17:00.238Z,34.92
2022-10-05T11:20:03.747Z,35.00
2022-10-05T11:23:19.582Z,35.03
2022-10-05T11:26:06.623Z,35.02
2022-10-05T11:28:38.719Z,34.85
2022-10-05T11:31:27.241Z,34.96
2022-10-05T11:33:56.435Z,34.71
2022-10-05T11:37:02.098Z,34.94
2022-10-05T11:39:40.074Z,34.75
2022-10-05T11:42:28.730Z,34.82
2022-10-05T11:45:27.115Z,34.75
2022-10-05T11:48:02.278Z,34.56
2022-10-05T11:50:59.393Z,34.63
2022-10-05T11:53:42.927Z,34.60
2022-10-05T11:59:06.194Z,34.48
2022-10-05T12:01:51.299Z,34.38
2022-10-05T12:05:09.125Z,34.30
2022-10-05T12:07:56.125Z,34.05
2022-10-05T12:10:44.686Z,33.98
2022-10-05T12:13:45.516Z,33.90
2022-10-05T12:16:33.815Z,33.79
2022-10-05T12:19:29.362Z,33.77
2022-10-05T12:22:18.986Z,33.68
2022-10-05T12:25:06.440Z,33.60
2022-10-05T12:27:47.207Z,33.70
2022-10-05T12:30:33.972Z,33.57
2022-10-05T12:33:25.093Z,33.54
2022-10-05T12:36:07.095Z,33.43
2022-10-05T12:38:39.764Z,33.20
2022-10-05T12:41:30.461Z,33.26
2022-10-05T12:44:14.475Z,33.12
2022-10-05T12:47:07.467Z,32.90
2022-10-05T12:49:57.234Z,32.98
2022-10-05T12:52:45.731Z,32.94
2022-10-05T12:55:31.918Z,32.82
2022-10-05T12:58:14.212Z,32.61
2022-10-05T13:00:58.291Z,32.54
2022-10-05T13:03:39.113Z,32.46
2022-10-05T13:06:32.719Z,32.36
2022-10-05T13:09:14.633Z,32.31
2022-10-05T13:11:52.995Z,32.25
2022-10-05T13:15:05.644Z,32.21
2022-10-05T13:17:37.733Z,32.08
2022-10-05T13:20:29.132Z,32.08
2022-10-05T13:23:09.119Z,32.05
2022-10-05T13:25:47.173Z,31.99
2022-10-05T13:28:27.454Z,32.04
2022-10-05T13:31:08.514Z,32.02
2022-10-05T13:34:09.920Z,32.01
2022-10-05T13:36:45.807Z,31.80
2022-10-05T13:39:40.479Z,31.91
2022-10-05T13:42:27.991Z,31.74
2022-10-05T13:45:22.671Z,31.83
2022-10-05T13:48:04.838Z,31.79
2022-10-05T13:50:39.833Z,31.72
2022-10-05T13:53:50.391Z,31.76
2022-10-05T13:56:50.180Z,31.67
2022-10-05T13:59:34.413Z,31.64
2022-10-05T14:02:11.247Z,31.59
2022-10-05T14:04:48.110Z,31.57
2022-10-05T14:07:35.377Z,31.51
2022-10-05T14:10:13.452Z,31.45
2022-10-05T14:12:46.802Z,31.43
2022-10-05T14:15:34.145Z,31.53
2022-10-05T14:18:29.636Z,31.51
2022-10-05T14:21:17.414Z,31.46
2022-10-05T14:23:47.106Z,31.34
2022-10-05T14:26:34.447Z,31.46
2022-10-05T14:29:05.425Z,31.37
2022-10-05T14:31:38.814Z,31.38
2022-10-05T14:34:27.261Z,31.41
2022-10-05T14:37:03.205Z,31.34
2022-10-05T14:39:36.469Z,31.24
2022-10-05T14:42:28.139Z,31.23
2022-10-05T14:45:13.118Z,31.23
2022-10-05T14:47:54.796Z,31.18
2022-10-05T14:50:30.808Z,31.09
2022-10-05T14:53:26.251Z,31.05
2022-10-05T14:55:58.404Z,31.02
2022-10-05T14:58:40.596Z,31.05
2022-10-05T15:01:15.707Z,30.93
2022-10-05T15:04:03.078Z,30.83
2022-10-05T15:06:40.237Z,30.84
2022-10-05T15:09:24.029Z,30.87
2022-10-05T15:11:57.712Z,30.83
2022-10-05T15:14:48.632Z,30.94
2022-10-05T15:17:45.548Z,30.92
2022-10-05T15:20:28.364Z,30.83
2022-10-05T15:23:00.416Z,30.65
2022-10-05T15:25:50.033Z,30.75
2022-10-05T15:28:25.238Z,30.59
2022-10-05T15:31:03.314Z,30.64
2022-10-05T15:33:39.634Z,30.62
2022-10-05T15:36:27.484Z,30.60
2022-10-05T15:39:27.992Z,30.58
2022-10-05T15:42:49.418Z,30.52
2022-10-05T15:45:38.667Z,30.52
2022-10-05T15:48:40.463Z,30.49
2022-10-05T15:51:31.106Z,30.43
2022-10-05T15:54:27.563Z,30.27
2022-10-05T15:57:26.489Z,30.43
2022-10-05T16:00:15.993Z,30.41
2022-10-05T16:03:24.258Z,30.39
2022-10-05T16:06:21.639Z,30.30
2022-10-05T16:08:56.577Z,30.12
2022-10-05T16:11:44.188Z,30.32
2022-10-05T16:14:13.725Z,30.23
2022-10-05T16:17:18.867Z,30.34
2022-10-05T16:20:10.704Z,30.34
2022-10-05T16:23:11.394Z,30.33
2022-10-05T16:26:05.020Z,30.33
2022-10-05T16:28:54.420Z,30.30
2022-10-05T16:31:38.393Z,30.28
2022-10-05T16:34:32.178Z,30.15
2022-10-05T16:37:16.151Z,30.20
2022-10-05T16:40:01.128Z,30.24
2022-10-05T16:42:57.766Z,30.27
2022-10-05T16:45:59.401Z,30.30
2022-10-05T16:48:53.136Z,30.27
2022-10-05T16:51:28.278Z,30.26
2022-10-05T16:54:21.800Z,30.27
2022-10-05T16:57:04.419Z,30.24
2022-10-05T17:00:04.733Z,30.28
2022-10-05T17:02:47.205Z,30.22
2022-10-05T17:05:42.244Z,30.25
2022-10-05T17:08:32.998Z,30.14
2022-10-05T17:11:22.174Z,30.22
2022-10-05T17:14:17.099Z,30.22
2022-10-05T17:16:52.263Z,30.19
2022-10-05T17:19:36.210Z,30.24
2022-10-05T17:22:22.609Z,30.31
2022-10-05T17:25:00.615Z,30.19
2022-10-05T17:27:33.673Z,30.12
2022-10-05T17:30:29.601Z,30.27
2022-10-05T17:33:15.185Z,30.23
2022-10-05T17:35:55.394Z,30.26
2022-10-05T17:38:45.105Z,30.09
2022-10-05T17:41:17.201Z,30.21
2022-10-05T17:44:04.927Z,30.30
2022-10-05T17:46:48.537Z,30.24
2022-10-05T17:49:35.827Z,30.21
2022-10-05T17:52:40.700Z,30.02
2022-10-05T17:55:39.461Z,30.08
2022-10-05T17:58:29.883Z,30.16
2022-10-05T18:00:58.998Z,30.02
2022-10-05T18:03:51.123Z,30.06
2022-10-05T18:06:34.196Z,30.11
2022-10-05T18:09:34.967Z,29.87
2022-10-05T18:12:19.098Z,29.86
2022-10-05T18:15:09.094Z,29.74
2022-10-05T18:17:51.949Z,29.48
2022-10-05T18:20:29.785Z,29.64
2022-10-05T18:23:07.103Z,29.52
2022-10-05T18:26:06.142Z,29.51
2022-10-05T18:28:55.736Z,29.39
2022-10-05T18:31:26.849Z,29.16
2022-10-05T18:33:55.911Z,29.20
2022-10-05T18:36:47.973Z,29.16
2022-10-05T18:39:36.388Z,29.37
2022-10-05T18:42:34.082Z,29.32
2022-10-05T18:45:23.071Z,29.27
2022-10-05T18:48:18.139Z,29.27
2022-10-05T18:51:02.336Z,29.00
2022-10-05T18:53:45.387Z,29.18
2022-10-05T18:56:22.331Z,29.02
2022-10-05T18:58:56.915Z,29.03
2022-10-05T19:01:51.555Z,29.15
2022-10-05T19:04:24.035Z,28.99
2022-10-05T19:06:58.085Z,28.83
2022-10-05T19:09:51.390Z,29.00
2022-10-05T19:12:41.772Z,28.96
2022-10-05T19:15:24.426Z,28.93
2022-10-05T19:18:19.514Z,29.09
2022-10-05T19:21:19.078Z,29.20
2022-10-05T19:24:06.057Z,29.10
2022-10-05T19:27:07.793Z,29.16
2022-10-05T19:30:26.192Z,29.16
2022-10-05T19:33:16.772Z,29.13
2022-10-05T19:35:59.504Z,28.99
2022-10-05T19:39:06.614Z,28.95
2022-10-05T19:41:45.738Z,28.92
2022-10-05T19:44:18.957Z,28.80
2022-10-05T19:47:02.688Z,29.00
2022-10-05T19:49:59.862Z,29.13
2022-10-05T19:52:41.100Z,28.98
2022-10-05T19:55:15.908Z,28.93
2022-10-05T19:57:50.086Z,28.94
2022-10-05T20:00:27.961Z,28.89
2022-10-05T20:03:24.604Z,29.02
2022-10-05T20:05:55.055Z,28.84
2022-10-05T20:08:27.678Z,28.80
2022-10-05T20:11:11.069Z,28.96
2022-10-05T20:13:46.780Z,28.93
2022-10-05T20:16:37.061Z,28.95
2022-10-05T20:19:45.260Z,28.84
2022-10-05T20:22:36.923Z,28.94
2022-10-05T20:25:19.881Z,28.84
2022-10-05T20:27:56.482Z,28.90
2022-10-05T20:30:32.295Z,28.93
2022-10-05T20:33:11.397Z,28.74
2022-10-05T20:35:40.726Z,28.75
2022-10-05T20:38:09.670Z,28.73
2022-10-05T20:40:40.027Z,28.76
2022-10-05T20:43:09.185Z,28.72
2022-10-05T20:45:44.251Z,28.59
2022-10-05T20:48:15.302Z,28.67
2022-10-05T20:50:44.737Z,28.61
2022-10-05T20:53:14.171Z,28.55
2022-10-05T20:55:44.160Z,28.58
2022-10-05T20:58:13.124Z,28.55
2022-10-05T21:01:00.568Z,28.70
2022-10-05T21:03:29.793Z,28.64
2022-10-05T21:05:58.640Z,28.71
2022-10-05T21:08:28.261Z,28.65
2022-10-05T21:10:57.425Z,28.59
2022-10-05T21:13:27.630Z,28.59
2022-10-05T21:15:57.479Z,28.68
2022-10-05T21:18:26.898Z,28.65
2022-10-05T21:20:59.952Z,28.65
2022-10-05T21:23:33.608Z,28.66
2022-10-05T21:26:03.347Z,28.68
2022-10-05T21:28:34.771Z,28.55
2022-10-05T21:31:04.088Z,28.62
2022-10-05T21:33:33.602Z,28.52
2022-10-05T21:36:03.015Z,28.57
2022-10-05T21:38:31.993Z,28.43
2022-10-05T21:41:01.328Z,28.47
2022-10-05T21:43:30.481Z,28.38
2022-10-05T21:46:00.158Z,28.38
2022-10-05T21:48:31.357Z,28.32
2022-10-05T21:51:02.239Z,28.38
2022-10-05T21:53:40.048Z,28.45
2022-10-05T21:56:15.347Z,28.45
2022-10-05T21:58:46.818Z,28.39
2022-10-05T22:01:20.144Z,28.36
2022-10-05T22:03:51.586Z,28.40
2022-10-05T22:06:20.632Z,28.29
2022-10-05T22:08:50.093Z,28.39
2022-10-05T22:11:19.835Z,28.40
2022-10-05T22:13:51.412Z,28.49
2022-10-05T22:16:22.833Z,28.46
2022-10-05T22:18:54.602Z,28.45
2022-10-05T22:21:23.723Z,28.31
2022-10-05T22:23:52.683Z,28.31
2022-10-05T22:26:24.480Z,28.37
2022-10-05T22:28:57.359Z,28.11
2022-10-05T22:31:26.860Z,28.04
2022-10-05T22:33:55.876Z,27.97
2022-10-05T22:36:25.207Z,28.02
2022-10-05T22:38:54.219Z,28.06
2022-10-05T22:41:23.318Z,28.09
2022-10-05T22:43:53.023Z,28.08
2022-10-05T22:46:23.529Z,28.11
2022-10-05T22:48:52.765Z,28.15
2022-10-05T22:51:21.780Z,28.14
2022-10-05T22:53:51.166Z,28.16
2022-10-05T22:56:20.323Z,28.07
2022-10-05T22:58:49.537Z,28.06
2022-10-05T23:01:20.757Z,28.06
2022-10-05T23:03:49.842Z,28.00
2022-10-05T23:06:21.382Z,28.11
2022-10-05T23:08:50.640Z,27.98
2022-10-05T23:11:28.056Z,28.07
2022-10-05T23:13:57.978Z,27.98
2022-10-05T23:16:29.189Z,28.05
2022-10-05T23:18:59.418Z,27.93
2022-10-05T23:21:31.913Z,28.02
2022-10-05T23:24:01.462Z,27.97
2022-10-05T23:26:31.739Z,27.92
2022-10-05T23:29:01.134Z,27.90
2022-10-05T23:31:34.580Z,27.93
2022-10-05T23:34:03.774Z,27.84
2022-10-05T23:36:33.350Z,27.85
2022-10-05T23:39:02.684Z,27.75
2022-10-05T23:41:31.691Z,27.78
2022-10-05T23:44:00.829Z,27.73
2022-10-05T23:46:29.803Z,27.76
2022-10-05T23:48:58.976Z,27.68
2022-10-05T23:51:27.884Z,27.70
2022-10-05T23:53:57.151Z,27.66
2022-10-05T23:56:26.381Z,27.63
2022-10-05T23:58:55.597Z,27.55
